Time;durP1;ratioP1;P1;durP2;ratioP2;P2;SDS_P1;SDS_P2;PMS_P1;PMS_P2;Temp;Humidity;BMP_temperature;BMP_pressure;BME280_temperature;BME280_humidity;BME280_pressure;Samples;Min_cycle;Max_cycle;Signal;HPM_P1;HPM_P2
2023/06/19 00:02:14;;;;;;;;;7.75;7.75;;;;;20.41;96.54;100247.69;5056925;28;45201;-69
2023/06/19 00:04:39;;;;;;;;;8.00;8.00;;;;;20.41;96.60;100245.84;5056356;28;53419;-67
2023/06/19 00:07:04;;;;;;;;;7.00;7.00;;;;;20.40;97.10;100254.84;5057043;28;45322;-66
2023/06/19 00:09:30;;;;;;;;;8.50;8.50;;;;;20.37;97.77;100243.59;5056790;28;45506;-67
2023/06/19 00:11:55;;;;;;;;;9.75;9.75;;;;;20.36;97.17;100250.75;5056181;28;56847;-71
2023/06/19 00:14:20;;;;;;;;;10.00;10.00;;;;;20.30;96.95;100237.94;5057372;28;45454;-70
2023/06/19 00:16:46;;;;;;;;;10.50;10.50;;;;;20.30;97.15;100243.28;5055559;28;45632;-70
2023/06/19 00:19:12;;;;;;;;;8.75;8.75;;;;;20.28;97.59;100254.09;5056525;28;45425;-66
2023/06/19 00:21:38;;;;;;;;;10.75;10.75;;;;;20.23;97.20;100256.34;5056568;28;45292;-69
2023/06/19 00:24:04;;;;;;;;;10.00;10.00;;;;;20.14;97.37;100257.09;5056691;28;45412;-69
2023/06/19 00:26:29;;;;;;;;;10.00;10.00;;;;;20.17;97.81;100264.00;5056692;28;45346;-70
2023/06/19 00:28:54;;;;;;;;;12.00;12.00;;;;;20.06;97.54;100257.78;5055886;28;56699;-64
2023/06/19 00:31:20;;;;;;;;;8.00;8.00;;;;;20.07;97.81;100264.81;5056113;28;60242;-67
2023/06/19 00:33:47;;;;;;;;;9.75;9.75;;;;;20.01;98.21;100268.00;5055211;28;45267;-65
2023/06/19 00:36:15;;;;;;;;;9.00;9.00;;;;;20.01;98.20;100276.00;5055433;28;45532;-66
2023/06/19 00:38:42;;;;;;;;;13.75;13.75;;;;;19.98;98.38;100285.09;5056411;28;45512;-67
2023/06/19 00:41:08;;;;;;;;;10.50;10.50;;;;;19.96;98.52;100292.41;5055072;28;45413;-69
2023/06/19 00:43:34;;;;;;;;;9.50;9.50;;;;;19.92;98.45;100296.31;5056594;28;45445;-64
2023/06/19 00:46:00;;;;;;;;;11.75;11.75;;;;;19.93;99.28;100311.34;5056782;28;45420;-64
2023/06/19 00:48:31;;;;;;;;;9.25;9.25;;;;;19.88;99.11;100296.69;5056589;28;45422;-64
2023/06/19 00:50:57;;;;;;;;;9.75;9.75;;;;;19.92;99.25;100303.47;5056174;28;45507;-70
2023/06/19 00:53:24;;;;;;;;;11.00;11.00;;;;;19.93;99.55;100305.19;5056820;28;45401;-68
2023/06/19 00:55:53;;;;;;;;;11.00;11.00;;;;;19.94;99.24;100306.88;5056709;28;45362;-66
2023/06/19 00:58:22;;;;;;;;;13.00;13.00;;;;;19.90;98.75;100302.75;5055988;28;45422;-69
2023/06/19 01:00:48;;;;;;;;;12.25;12.25;;;;;19.91;98.36;100307.13;5055923;28;45369;-67
2023/06/19 01:03:14;;;;;;;;;11.50;11.50;;;;;19.89;98.67;100317.06;5056304;28;45422;-67
2023/06/19 01:05:40;;;;;;;;;13.25;13.25;;;;;19.84;98.72;100320.97;5056448;28;45527;-66
2023/06/19 01:08:27;;;;;;;;;11.50;11.50;;;;;19.62;99.50;100291.72;5055939;28;46409;-66
2023/06/19 01:10:57;;;;;;;;;10.25;10.25;;;;;19.84;100.00;100328.09;5055709;28;45411;-66
2023/06/19 01:13:28;;;;;;;;;11.75;11.75;;;;;19.85;100.00;100327.13;5056634;28;45421;-66
2023/06/19 01:15:54;;;;;;;;;11.00;11.00;;;;;19.86;100.00;100326.16;5055144;28;45428;-65
2023/06/19 01:18:21;;;;;;;;;10.50;10.50;;;;;19.89;100.00;100333.06;5055827;28;45445;-68
2023/06/19 01:20:49;;;;;;;;;9.50;9.50;;;;;19.90;100.00;100327.63;5055834;28;45287;-67
2023/06/19 01:23:14;;;;;;;;;10.75;10.75;;;;;19.90;100.00;100327.63;5055877;28;45410;-65
2023/06/19 01:25:39;;;;;;;;;13.00;13.00;;;;;19.85;100.00;100324.47;5056260;28;45647;-66
2023/06/19 01:28:10;;;;;;;;;12.75;12.75;;;;;19.87;100.00;100329.69;5056006;28;46264;-66
2023/06/19 01:30:37;;;;;;;;;11.00;11.00;;;;;19.90;100.00;100332.13;5054235;28;45467;-69
2023/06/19 01:33:23;;;;;;;;;11.25;11.25;;;;;19.88;100.00;100332.22;5055937;28;45371;-70
2023/06/19 01:35:50;;;;;;;;;13.25;13.25;;;;;19.83;100.00;100323.75;5055959;28;45384;-69
2023/06/19 01:38:17;;;;;;;;;12.25;11.75;;;;;19.79;100.00;100320.50;5055547;28;45467;-69
2023/06/19 01:40:43;;;;;;;;;12.50;12.50;;;;;19.76;100.00;100320.75;5054143;28;45486;-68
2023/06/19 01:43:10;;;;;;;;;13.50;13.50;;;;;19.76;100.00;100327.91;5055588;28;45394;-69
2023/06/19 01:45:35;;;;;;;;;12.50;12.50;;;;;19.72;100.00;100324.66;5055901;28;45896;-69
2023/06/19 01:48:01;;;;;;;;;16.00;14.25;;;;;19.69;100.00;100324.91;5055280;28;46217;-68
2023/06/19 01:50:26;;;;;;;;;14.00;14.00;;;;;19.67;100.00;100332.19;5055708;28;45334;-69
2023/06/19 01:52:52;;;;;;;;;13.75;13.75;;;;;19.68;100.00;100334.72;5055614;28;45385;-70
2023/06/19 01:55:18;;;;;;;;;14.75;14.75;;;;;19.64;100.00;100333.28;5055717;28;45410;-70
2023/06/19 01:57:45;;;;;;;;;13.25;13.25;;;;;19.64;100.00;100332.44;5055022;28;45422;-68
2023/06/19 02:00:11;;;;;;;;;7.50;7.50;;;;;19.61;100.00;100330.88;5055190;28;45302;-68
2023/06/19 02:02:37;;;;;;;;;14.00;14.00;;;;;19.60;100.00;100336.31;5055145;28;45322;-68
2023/06/19 02:05:02;;;;;;;;;13.75;13.75;;;;;19.54;100.00;100327.00;5054150;28;45593;-68
2023/06/19 02:07:28;;;;;;;;;10.00;10.00;;;;;19.54;100.00;100330.50;5055585;28;47757;-69
2023/06/19 02:09:53;;;;;;;;;12.75;12.75;;;;;19.52;100.00;100334.28;5053772;28;45509;-68
2023/06/19 02:12:18;;;;;;;;;13.00;13.00;;;;;19.50;100.00;100337.06;5053951;28;45494;-66
2023/06/19 02:14:44;;;;;;;;;16.00;16.00;;;;;19.37;100.00;100315.03;5055313;28;45480;-67
2023/06/19 02:17:09;;;;;;;;;16.00;16.00;;;;;19.41;100.00;100324.50;5055016;28;46032;-66
2023/06/19 02:19:34;;;;;;;;;14.25;14.25;;;;;19.44;100.00;100328.75;5054956;28;45242;-70
2023/06/19 02:22:00;;;;;;;;;15.25;15.25;;;;;19.41;100.00;100328.03;5054216;28;45465;-69
2023/06/19 02:24:25;;;;;;;;;14.00;14.00;;;;;19.39;100.00;100318.44;5055346;28;45655;-69
2023/06/19 02:26:51;;;;;;;;;16.75;16.75;;;;;19.42;100.00;100327.03;5054640;28;46563;-68
2023/06/19 02:29:16;;;;;;;;;17.00;17.00;;;;;19.40;100.00;100325.47;5054676;28;45319;-72
2023/06/19 02:31:42;;;;;;;;;13.75;13.75;;;;;19.41;100.00;100327.16;5055012;28;45336;-68
2023/06/19 02:34:08;;;;;;;;;17.00;17.00;;;;;19.41;100.00;100338.69;5055113;28;45356;-68
2023/06/19 02:36:35;;;;;;;;;21.75;21.50;;;;;19.41;100.00;100337.81;5054755;28;45442;-70
2023/06/19 02:39:01;;;;;;;;;16.50;16.50;;;;;19.40;100.00;100353.00;5053457;28;45476;-65
2023/06/19 02:41:26;;;;;;;;;17.25;17.25;;;;;19.31;100.00;100337.75;5053315;28;45471;-68
2023/06/19 02:43:51;;;;;;;;;14.50;14.50;;;;;19.31;100.00;100343.06;5053519;28;45592;-68
2023/06/19 02:46:17;;;;;;;;;17.75;17.75;;;;;19.33;100.00;100342.94;5054428;28;47092;-68
2023/06/19 02:48:42;;;;;;;;;14.25;14.25;;;;;19.32;100.00;100351.91;5053115;28;45320;-68
2023/06/19 02:51:08;;;;;;;;;13.75;13.75;;;;;19.31;100.00;100348.41;5054847;28;45728;-68
2023/06/19 02:53:33;;;;;;;;;14.25;14.25;;;;;19.27;100.00;100342.47;5054787;28;45318;-65
2023/06/19 02:55:59;;;;;;;;;17.00;17.00;;;;;19.23;100.00;100334.84;5054494;28;46334;-69
2023/06/19 02:58:25;;;;;;;;;12.50;12.50;;;;;19.24;100.00;100341.88;5054437;28;45281;-68
2023/06/19 03:00:51;;;;;;;;;14.25;14.25;;;;;19.22;100.00;100336.66;5054454;28;45268;-68
2023/06/19 03:03:16;;;;;;;;;16.50;16.00;;;;;19.27;100.00;100345.13;5054106;28;45634;-70
2023/06/19 03:05:41;;;;;;;;;14.25;14.25;;;;;19.24;100.00;100344.53;5054226;28;46528;-70
2023/06/19 03:08:07;;;;;;;;;16.25;16.25;;;;;19.22;100.00;100349.16;5054086;28;45388;-70
2023/06/19 03:10:32;;;;;;;;;13.25;13.25;;;;;19.17;100.00;100341.50;5054771;28;45451;-67
2023/06/19 03:12:58;;;;;;;;;12.50;12.50;;;;;19.20;100.00;100335.94;5054551;28;45481;-64
2023/06/19 03:15:26;;;;;;;;;15.50;15.25;;;;;19.15;100.00;100335.47;5054175;28;45574;-67
2023/06/19 03:17:55;;;;;;;;;14.00;14.00;;;;;19.18;100.00;100342.38;5054411;28;45503;-68
2023/06/19 03:20:20;;;;;;;;;14.75;14.25;;;;;19.16;100.00;100345.16;5054343;28;45371;-68
2023/06/19 03:22:46;;;;;;;;;14.00;14.00;;;;;19.20;100.00;100354.59;5054594;28;45519;-69
2023/06/19 03:25:11;;;;;;;;;13.75;13.75;;;;;19.16;100.00;100345.16;5053948;28;45320;-69
2023/06/19 03:27:36;;;;;;;;;16.00;16.00;;;;;19.19;100.00;100342.25;5052617;28;45746;-69
2023/06/19 03:30:06;;;;;;;;;15.00;15.00;;;;;19.21;100.00;100339.47;5054572;28;45327;-68
2023/06/19 03:32:32;;;;;;;;;12.75;12.75;;;;;19.21;100.00;100337.63;5055552;28;45232;-68
2023/06/19 03:34:57;;;;;;;;;14.00;14.00;;;;;19.06;100.00;100313.03;5057277;28;45682;-68
2023/06/19 03:37:23;;;;;;;;;14.00;14.00;;;;;19.18;100.00;100350.38;5057381;28;45194;-70
2023/06/19 03:39:48;;;;;;;;;12.25;12.25;;;;;19.15;100.00;100348.78;5057413;28;45314;-68
2023/06/19 03:42:13;;;;;;;;;13.25;13.25;;;;;19.11;100.00;100344.66;5057569;28;45172;-68
2023/06/19 03:44:40;;;;;;;;;14.50;14.50;;;;;19.12;100.00;100351.69;5055971;28;47106;-65
2023/06/19 03:47:05;;;;;;;;;17.00;17.00;;;;;19.11;100.00;100353.53;5055999;28;45418;-67
2023/06/19 03:49:31;;;;;;;;;13.75;13.75;;;;;19.11;100.00;100366.88;5057241;28;45470;-69
2023/06/19 03:51:56;;;;;;;;;16.00;15.25;;;;;19.14;100.00;100359.59;5056035;28;45587;-68
2023/06/19 03:54:21;;;;;;;;;16.00;16.00;;;;;19.14;100.00;100370.25;5056735;28;61566;-66
2023/06/19 03:56:46;;;;;;;;;15.50;15.50;;;;;19.16;100.00;100355.81;5057424;28;45829;-68
2023/06/19 03:59:12;;;;;;;;;14.25;14.25;;;;;19.15;100.00;100353.28;5056997;28;45385;-69
2023/06/19 04:01:37;;;;;;;;;19.00;18.00;;;;;19.17;100.00;100346.00;5057169;28;45347;-65
2023/06/19 04:04:02;;;;;;;;;23.50;23.50;;;;;19.17;100.00;100346.00;5057087;28;47281;-69
2023/06/19 04:06:28;;;;;;;;;18.00;18.00;;;;;19.19;100.00;100352.06;5055391;28;45420;-67
2023/06/19 04:08:53;;;;;;;;;16.75;16.75;;;;;19.23;100.00;100364.19;5056562;28;57454;-68
2023/06/19 04:11:18;;;;;;;;;17.00;17.00;;;;;19.27;100.00;100357.63;5057073;28;45456;-69
2023/06/19 04:13:44;;;;;;;;;17.00;16.50;;;;;19.28;100.00;100354.00;5057120;28;45439;-72
2023/06/19 04:16:09;;;;;;;;;16.00;16.00;;;;;19.33;100.00;100361.59;5057120;28;45413;-66
2023/06/19 04:18:34;;;;;;;;;16.75;16.75;;;;;19.34;100.00;100364.16;5057200;28;45437;-64
2023/06/19 04:21:00;;;;;;;;;14.25;14.25;;;;;19.37;100.00;100366.56;5057086;28;45286;-64
2023/06/19 04:23:25;;;;;;;;;15.25;15.25;;;;;19.35;100.00;100365.84;5056480;28;46527;-65
2023/06/19 04:25:51;;;;;;;;;15.00;14.25;;;;;19.37;100.00;100374.59;5056116;28;57544;-68
2023/06/19 04:28:16;;;;;;;;;16.25;16.25;;;;;19.43;100.00;100383.88;5055342;28;45341;-69
2023/06/19 04:30:42;;;;;;;;;16.25;16.25;;;;;19.44;100.00;100396.25;5056800;28;45507;-67
2023/06/19 04:33:08;;;;;;;;;15.00;15.00;;;;;19.44;100.00;100387.41;5056795;28;47063;-65
2023/06/19 04:35:39;;;;;;;;;14.25;14.00;;;;;19.45;100.00;100391.78;5056390;28;45348;-68
2023/06/19 04:38:04;;;;;;;;;16.50;16.50;;;;;19.46;100.00;100394.31;5056653;28;45337;-67
2023/06/19 04:40:30;;;;;;;;;15.25;15.25;;;;;19.49;100.00;100401.22;5056653;28;45193;-66
2023/06/19 04:42:55;;;;;;;;;14.00;14.00;;;;;19.50;100.00;100405.59;5055797;28;60450;-68
2023/06/19 04:45:20;;;;;;;;;13.25;13.25;;;;;19.52;100.00;100407.16;5053128;28;64825;-69
2023/06/19 04:47:46;;;;;;;;;15.00;15.00;;;;;19.54;100.00;100402.53;5056415;28;45260;-69
2023/06/19 04:50:11;;;;;;;;;11.50;11.50;;;;;19.60;100.00;100400.34;5056371;28;45401;-67
2023/06/19 04:52:37;;;;;;;;;15.00;15.00;;;;;19.60;100.00;100395.88;5056321;28;46348;-66
2023/06/19 04:55:05;;;;;;;;;19.25;19.25;;;;;19.64;100.00;100405.31;5056265;28;45338;-69
2023/06/19 04:57:30;;;;;;;;;14.75;14.75;;;;;19.63;100.00;100395.63;5056238;28;45437;-67
2023/06/19 04:59:55;;;;;;;;;19.50;19.50;;;;;19.74;100.00;100397.41;5054581;28;45665;-67
2023/06/19 05:02:21;;;;;;;;;18.50;18.25;;;;;19.80;100.00;100406.72;5055756;28;53004;-66
2023/06/19 05:04:46;;;;;;;;;15.75;15.75;;;;;19.82;100.00;100410.97;5056033;28;45337;-69
2023/06/19 05:07:12;;;;;;;;;13.75;13.75;;;;;19.81;100.00;100405.75;5056148;28;45290;-65
2023/06/19 05:09:38;;;;;;;;;18.25;18.25;;;;;19.85;100.00;100408.06;5056606;28;45337;-67
2023/06/19 05:12:03;;;;;;;;;18.00;18.00;;;;;19.88;100.00;100411.44;5055608;28;45470;-66
2023/06/19 05:14:28;;;;;;;;;17.75;17.50;;;;;19.87;100.00;100407.91;5056045;28;45381;-70
2023/06/19 05:16:54;;;;;;;;;18.25;18.25;;;;;19.89;100.00;100410.47;5055962;28;46115;-68
2023/06/19 05:19:19;;;;;;;;;15.00;15.00;;;;;19.89;100.00;100405.97;5056083;28;45512;-69
2023/06/19 05:21:44;;;;;;;;;18.50;18.50;;;;;19.90;100.00;100393.50;5055722;28;45438;-68
2023/06/19 05:24:10;;;;;;;;;18.00;18.00;;;;;19.93;100.00;100387.91;5056064;28;45390;-72
2023/06/19 05:26:35;;;;;;;;;16.25;16.25;;;;;20.01;100.00;100396.13;5055890;28;45303;-67
2023/06/19 05:29:00;;;;;;;;;17.50;17.50;;;;;20.06;100.00;100385.91;5055745;28;45688;-69
2023/06/19 05:31:26;;;;;;;;;20.25;20.25;;;;;20.08;100.00;100385.78;5055382;28;53034;-78
2023/06/19 05:33:51;;;;;;;;;20.25;20.25;;;;;20.12;99.99;100384.53;5055815;28;45243;-70
2023/06/19 05:36:16;;;;;;;;;25.00;25.00;;;;;20.18;99.71;100400.09;5055689;28;45264;-68
2023/06/19 05:38:42;;;;;;;;;20.25;20.25;;;;;20.12;99.40;100385.41;5056192;28;45505;-69
2023/06/19 05:41:08;;;;;;;;;23.50;23.50;;;;;20.30;99.66;100400.84;5055413;28;46628;-66
2023/06/19 05:43:33;;;;;;;;;19.25;19.25;;;;;20.40;98.96;100409.78;5055145;28;45379;-64
2023/06/19 05:45:59;;;;;;;;;20.50;20.00;;;;;20.48;98.33;100400.25;5055469;28;45228;-72
2023/06/19 05:48:25;;;;;;;;;19.75;19.75;;;;;20.55;97.48;100385.41;5054285;28;45577;-64
2023/06/19 05:50:50;;;;;;;;;22.00;22.00;;;;;20.65;96.76;100388.97;5053959;28;45472;-66
2023/06/19 05:53:16;;;;;;;;;18.25;18.25;;;;;20.70;95.56;100375.22;5052852;28;45414;-65
2023/06/19 05:55:41;;;;;;;;;21.50;21.50;;;;;20.82;95.29;100382.22;5054501;28;45488;-66
2023/06/19 05:58:07;;;;;;;;;22.25;21.50;;;;;20.97;94.58;100377.38;5052758;28;45409;-65
2023/06/19 06:00:32;;;;;;;;;18.00;18.00;;;;;21.06;93.56;100383.72;5047913;28;46513;-65
2023/06/19 06:03:02;;;;;;;;;18.25;18.25;;;;;21.14;92.78;100377.72;5034885;28;45742;-62
2023/06/19 06:05:27;;;;;;;;;19.25;19.25;;;;;21.24;90.78;100381.25;5050229;28;45293;-68
2023/06/19 06:07:53;;;;;;;;;15.50;15.50;;;;;21.33;89.72;100384.94;5047823;28;45616;-67
2023/06/19 06:10:23;;;;;;;;;16.50;16.50;;;;;21.40;88.74;100377.22;5050683;28;45359;-70
2023/06/19 06:12:49;;;;;;;;;94.00;90.33;;;;;21.49;88.08;100381.72;5035061;28;45396;-64
2023/06/19 06:15:14;;;;;;;;;16.25;16.25;;;;;21.61;87.13;100393.19;5043937;28;45433;-67
2023/06/19 06:17:40;;;;;;;;;17.75;17.75;;;;;21.68;86.84;100388.13;5068791;27;45465;-73
2023/06/19 06:20:11;;;;;;;;;21.50;21.50;;;;;21.75;87.24;100386.63;5054061;28;46111;-70
2023/06/19 06:22:37;;;;;;;;;23.75;22.25;;;;;21.81;87.28;100393.22;5049918;28;45438;-68
2023/06/19 06:25:02;;;;;;;;;21.50;21.50;;;;;21.87;87.28;100401.56;5055118;28;45495;-73
2023/06/19 06:27:27;;;;;;;;;20.25;20.25;;;;;21.95;86.92;100408.88;5048334;28;45458;-69
2023/06/19 06:29:53;;;;;;;;;23.25;23.25;;;;;21.97;86.52;100408.75;5040349;28;64274;-72
2023/06/19 06:32:18;;;;;;;;;21.50;21.50;;;;;21.99;86.45;100410.28;5053791;28;45515;-81
2023/06/19 06:34:44;;;;;;;;;22.75;22.75;;;;;22.04;86.04;100417.91;5042535;28;45794;-74
2023/06/19 06:37:09;;;;;;;;;20.00;20.00;;;;;22.15;85.63;100423.13;5053051;28;47345;-73
2023/06/19 06:39:34;;;;;;;;;22.00;22.00;;;;;22.21;85.17;100427.06;5055249;28;46118;-74
2023/06/19 06:42:00;;;;;;;;;20.25;19.50;;;;;22.19;84.30;100426.34;5054755;28;45404;-68
2023/06/19 06:44:26;;;;;;;;;21.00;21.00;;;;;22.20;84.39;100433.41;5054547;28;45405;-70
2023/06/19 06:46:51;;;;;;;;;21.50;21.50;;;;;22.30;83.94;100438.78;5051123;28;45498;-74
2023/06/19 06:49:17;;;;;;;;;22.25;22.00;;;;;22.26;84.09;100419.44;5051953;28;45411;-65
2023/06/19 06:51:42;;;;;;;;;25.00;25.00;;;;;22.33;83.58;100433.13;5052367;28;51521;-66
2023/06/19 06:54:08;;;;;;;;;19.75;19.75;;;;;22.40;82.96;100458.38;5052629;28;45400;-67
2023/06/19 06:56:33;;;;;;;;;27.50;27.25;;;;;22.30;82.94;100428.91;5052465;28;45539;-70
2023/06/19 06:58:58;;;;;;;;;32.50;31.00;;;;;22.44;83.02;100450.91;5051473;28;49964;-69
2023/06/19 07:01:24;;;;;;;;;27.00;27.00;;;;;22.50;82.21;100453.03;5053391;28;45145;-70
2023/06/19 07:03:49;;;;;;;;;22.75;22.75;;;;;22.52;82.29;100448.38;5054938;28;45251;-70
2023/06/19 07:06:14;;;;;;;;;25.75;25.75;;;;;22.58;81.75;100445.13;5055343;28;45207;-70
2023/06/19 07:08:40;;;;;;;;;26.75;26.75;;;;;22.65;81.43;100445.38;5056331;28;57641;-66
2023/06/19 07:11:06;;;;;;;;;22.00;22.00;;;;;;;;5057376;28;45460;-69
2023/06/19 07:13:31;;;;;;;;;22.75;22.50;;;;;22.76;80.53;100445.22;5057917;28;45400;-71
2023/06/19 07:15:58;;;;;;;;;25.50;25.50;;;;;22.85;79.88;100451.56;5057997;28;45311;-69
2023/06/19 07:18:23;;;;;;;;;24.25;24.25;;;;;22.94;79.83;100447.16;5057431;28;45537;-71
2023/06/19 07:20:48;;;;;;;;;22.75;22.75;;;;;23.05;79.00;100449.66;5057376;28;45771;-72
2023/06/19 07:23:14;;;;;;;;;22.00;22.00;;;;;23.10;78.09;100443.03;5057832;28;45545;-69
2023/06/19 07:25:39;;;;;;;;;28.50;28.25;;;;;23.17;77.87;100444.13;5058225;28;45303;-72
2023/06/19 07:28:05;;;;;;;;;24.00;24.00;;;;;23.24;77.43;100453.28;5057639;28;45404;-73
2023/06/19 07:30:31;;;;;;;;;27.75;27.00;;;;;23.32;77.05;100452.53;5057643;28;45185;-71
2023/06/19 07:32:56;;;;;;;;;25.00;25.00;;;;;23.40;76.81;100451.81;5057683;28;45237;-71
2023/06/19 07:35:21;;;;;;;;;26.25;26.25;;;;;23.47;76.39;100443.03;5057972;28;45352;-73
2023/06/19 07:37:47;;;;;;;;;25.25;24.75;;;;;23.51;75.89;100440.03;5057585;28;52187;-66
2023/06/19 07:40:12;;;;;;;;;26.00;25.25;;;;;23.47;75.67;100424.25;5057232;28;45391;-65
2023/06/19 07:42:37;;;;;;;;;25.50;25.50;;;;;23.59;74.61;100437.44;5055929;28;45326;-70
2023/06/19 07:45:03;;;;;;;;;23.50;23.50;;;;;23.59;74.93;100445.50;5057640;28;45414;-71
2023/06/19 07:47:29;;;;;;;;;23.00;23.00;;;;;23.65;74.38;100444.91;5057054;28;45433;-71
2023/06/19 07:49:54;;;;;;;;;27.00;27.00;;;;;23.67;73.92;100442.91;5057284;28;45335;-73
2023/06/19 07:52:20;;;;;;;;;27.75;27.75;;;;;23.66;73.92;100438.53;5056479;28;45267;-72
2023/06/19 07:54:54;;;;;;;;;25.25;25.25;;;;;23.67;73.84;100440.22;5057709;28;45248;-78
2023/06/19 07:57:20;;;;;;;;;25.00;25.00;;;;;23.68;74.06;100444.59;5057431;28;46480;-73
2023/06/19 07:59:46;;;;;;;;;27.00;26.50;;;;;23.77;73.31;100445.50;5057628;28;45655;-74
2023/06/19 08:02:11;;;;;;;;;37.25;33.50;;;;;23.84;73.17;100443.91;5057677;28;45383;-76
2023/06/19 08:04:37;;;;;;;;;26.75;26.75;;;;;23.89;72.35;100446.16;5057790;28;45573;-69
2023/06/19 08:07:02;;;;;;;;;25.25;25.25;;;;;23.90;71.22;100442.47;5057079;28;46910;-71
2023/06/19 08:09:28;;;;;;;;;23.25;23.25;;;;;23.84;70.44;100441.22;5057259;28;45398;-69
2023/06/19 08:11:53;;;;;;;;;22.50;22.50;;;;;23.87;70.69;100446.31;5056656;28;54902;-67
2023/06/19 08:14:18;;;;;;;;;26.00;26.00;;;;;23.83;69.94;100438.72;5057363;28;45560;-69
2023/06/19 08:16:45;;;;;;;;;24.50;24.50;;;;;23.84;70.51;100443.09;5056980;28;47024;-70
2023/06/19 08:19:10;;;;;;;;;26.00;26.00;;;;;23.89;70.11;100457.75;5056656;28;45249;-68
2023/06/19 08:21:36;;;;;;;;;22.75;22.75;;;;;23.80;69.40;100425.59;5056955;28;45238;-68
2023/06/19 08:24:01;;;;;;;;;27.75;27.75;;;;;23.98;69.52;100447.91;5056589;28;45242;-67
2023/06/19 08:26:27;;;;;;;;;22.75;22.75;;;;;24.02;69.57;100443.97;5056155;28;45344;-66
2023/06/19 08:28:52;;;;;;;;;23.75;23.75;;;;;24.13;69.34;100444.72;5056629;28;45467;-65
2023/06/19 08:31:18;;;;;;;;;23.00;23.00;;;;;24.20;68.20;100443.97;5056508;28;45225;-69
2023/06/19 08:33:43;;;;;;;;;23.75;23.75;;;;;24.31;67.83;100444.72;5055044;28;45778;-67
2023/06/19 08:36:08;;;;;;;;;21.50;21.50;;;;;24.35;66.65;100435.34;5056204;28;45372;-72
2023/06/19 08:38:34;;;;;;;;;24.25;24.25;;;;;24.46;66.33;100434.28;5056113;28;45340;-71
2023/06/19 08:40:59;;;;;;;;;23.50;22.50;;;;;24.57;66.21;100439.41;5056000;28;45294;-71
2023/06/19 08:43:25;;;;;;;;;21.75;21.75;;;;;24.68;65.98;100440.13;5055128;28;45334;-68
2023/06/19 08:46:14;;;;;;;;;20.00;20.00;;;;;24.75;64.60;100454.66;5056333;28;46250;-72
2023/06/19 08:48:41;;;;;;;;;20.25;20.25;;;;;24.82;63.68;100450.34;5055640;28;45320;-74
2023/06/19 08:51:07;;;;;;;;;19.75;19.75;;;;;24.87;63.68;100452.53;5055760;28;45275;-68
2023/06/19 08:53:43;;;;;;;;;18.75;18.75;;;;;24.90;63.94;100453.09;5055717;28;45573;-68
2023/06/19 08:56:08;;;;;;;;;17.25;17.25;;;;;24.93;63.15;100435.81;5055797;28;47072;-69
2023/06/19 08:58:34;;;;;;;;;17.50;17.50;;;;;25.06;63.42;100440.72;5055519;28;45238;-71
2023/06/19 09:00:59;;;;;;;;;17.00;17.00;;;;;25.13;63.03;100447.16;5055893;28;45214;-70
2023/06/19 09:03:25;;;;;;;;;22.00;22.00;;;;;25.23;62.62;100439.78;5056466;28;51279;-73
2023/06/19 09:05:50;;;;;;;;;20.50;20.50;;;;;25.33;62.49;100441.53;5056230;28;46572;-66
2023/06/19 09:08:20;;;;;;;;;23.00;22.50;;;;;25.45;62.06;100434.91;5055711;28;45417;-70
2023/06/19 09:11:18;;;;;;;;;19.00;19.00;;;;;25.52;61.01;100433.22;5055685;28;45402;-71
2023/06/19 09:13:43;;;;;;;;;17.50;17.50;;;;;25.56;61.36;100430.22;5047865;28;45703;-71
2023/06/19 09:16:08;;;;;;;;;23.00;23.00;;;;;25.54;61.09;100432.22;5055015;28;46051;-71
2023/06/19 09:18:48;;;;;;;;;16.50;16.50;;;;;25.57;60.47;100429.19;5055784;28;45185;-71
2023/06/19 09:21:23;;;;;;;;;23.75;23.75;;;;;25.56;60.78;100420.25;5055630;28;45352;-69
2023/06/19 09:23:51;;;;;;;;;17.50;17.50;;;;;25.58;59.95;100430.88;5056077;28;45411;-65
2023/06/19 09:26:18;;;;;;;;;13.00;13.00;;;;;25.64;59.43;100428.38;5054188;28;47374;-67
2023/06/19 09:28:43;;;;;;;;;15.00;15.00;;;;;25.74;58.96;100432.75;5055395;28;45297;-68
2023/06/19 09:31:09;;;;;;;;;28.75;28.25;;;;;25.85;58.02;100427.06;5054880;28;45218;-69
2023/06/19 09:33:35;;;;;;;;;13.75;13.75;;;;;26.00;58.30;100423.72;5054002;28;45312;-73
2023/06/19 09:36:03;;;;;;;;;12.25;12.25;;;;;26.17;57.54;100427.28;5055190;28;46221;-66
2023/06/19 09:38:30;;;;;;;;;12.00;11.25;;;;;26.27;56.86;100422.56;5053779;28;46016;-68
2023/06/19 09:40:59;;;;;;;;;21.00;21.00;;;;;26.34;56.75;100415.50;5055906;28;45534;-69
2023/06/19 09:43:33;;;;;;;;;15.50;15.50;;;;;26.37;56.27;100425.94;5054632;28;45181;-67
2023/06/19 09:46:01;;;;;;;;;17.25;17.25;;;;;26.39;55.89;100423.91;5055069;28;46239;-70
2023/06/19 09:48:29;;;;;;;;;14.50;14.50;;;;;26.33;55.07;100405.72;5053922;28;45358;-69
2023/06/19 09:51:00;;;;;;;;;11.00;11.00;;;;;26.45;55.41;100421.56;5055564;28;45283;-76
2023/06/19 09:53:27;;;;;;;;;13.00;13.00;;;;;26.50;54.94;100416.50;5055664;28;45485;-68
2023/06/19 09:55:52;;;;;;;;;12.00;12.00;;;;;26.55;55.13;100406.06;5055085;28;46329;-73
2023/06/19 09:58:20;;;;;;;;;15.25;14.75;;;;;26.61;54.60;100408.06;5053501;28;45415;-68
2023/06/19 10:00:47;;;;;;;;;7.25;7.25;;;;;26.62;54.39;100407.06;5055156;28;45297;-75
2023/06/19 10:03:13;;;;;;;;;14.75;14.75;;;;;26.62;54.05;100398.97;5055378;28;45502;-72
2023/06/19 10:05:40;;;;;;;;;13.00;13.00;;;;;26.65;54.35;100404.00;5054598;28;46206;-74
2023/06/19 10:08:06;;;;;;;;;12.00;12.00;;;;;26.71;53.86;100407.88;5054775;28;45264;-71
2023/06/19 10:10:33;;;;;;;;;13.00;13.00;;;;;26.77;53.43;100406.34;5054583;28;45396;-73
2023/06/19 10:12:59;;;;;;;;;14.50;14.50;;;;;26.83;52.74;100414.59;5053425;28;45635;-66
2023/06/19 10:15:27;;;;;;;;;13.75;12.00;;;;;26.90;53.00;100412.06;5055180;28;46199;-76
2023/06/19 10:18:05;;;;;;;;;11.00;11.00;;;;;27.01;52.96;100410.00;5053292;28;45302;-72
2023/06/19 10:20:38;;;;;;;;;10.00;10.00;;;;;27.01;52.18;100404.63;5055048;28;45433;-73
2023/06/19 10:23:07;;;;;;;;;13.75;13.75;;;;;27.05;51.40;100404.09;5053405;28;45502;-75
2023/06/19 10:25:35;;;;;;;;;10.25;10.25;;;;;27.06;51.72;100400.38;5054557;28;46412;-76
2023/06/19 10:28:01;;;;;;;;;12.50;12.50;;;;;27.10;51.36;100395.47;5054528;28;45319;-71
2023/06/19 10:30:27;;;;;;;;;12.75;12.75;;;;;27.15;51.23;100398.47;5054902;28;45311;-73
2023/06/19 10:32:53;;;;;;;;;15.00;15.00;;;;;27.24;51.12;100396.59;5053695;28;45560;-75
2023/06/19 10:35:21;;;;;;;;;14.75;14.75;;;;;27.27;51.18;100391.66;5053293;27;46564;-71
2023/06/19 10:37:48;;;;;;;;;14.50;14.50;;;;;27.37;51.00;100386.06;5054531;28;45468;-74
2023/06/19 10:40:14;;;;;;;;;12.50;12.50;;;;;27.44;50.39;100383.47;5052705;28;45317;-75
2023/06/19 10:42:40;;;;;;;;;20.50;20.25;;;;;27.53;50.58;100387.84;5052947;28;45636;-77
2023/06/19 10:45:15;;;;;;;;;16.25;16.25;;;;;27.65;49.54;100393.69;5053051;28;47127;-72
2023/06/19 10:47:41;;;;;;;;;12.00;12.00;;;;;27.80;49.67;100391.06;5054225;28;45317;-74
2023/06/19 10:50:15;;;;;;;;;12.25;12.25;;;;;27.87;47.66;100396.56;5054406;28;45240;-75
2023/06/19 10:52:44;;;;;;;;;13.50;13.00;;;;;27.92;48.34;100379.84;5053266;28;45409;-72
2023/06/19 10:55:11;;;;;;;;;12.25;12.25;;;;;28.05;48.69;100392.72;5054409;28;45483;-76
2023/06/19 10:57:37;;;;;;;;;13.25;13.25;;;;;28.14;48.14;100387.09;5054319;28;45448;-67
2023/06/19 11:00:11;;;;;;;;;16.50;16.50;;;;;28.33;48.35;100387.63;5052764;28;45473;-72
2023/06/19 11:02:38;;;;;;;;;14.00;14.00;;;;;28.42;48.22;100383.81;5054376;28;45322;-70
2023/06/19 11:05:04;;;;;;;;;11.75;11.75;;;;;28.49;47.41;100383.91;5053961;28;45366;-68